Terminal Aerodrome Forecast
Issued by NWS

Home | Current Version | Previous Version | Text Only | Print | Product List | Glossary On
Versions: 1 2 3 4 5 6 7 8 9 10 11 12 13 14
680
FTUS45 KTFX 210042 AAA
TAFGTF
TAF AMD
KGTF 210042Z 2101/2124 22015KT P6SM FEW060 SCT250
     FM211600 22017G25KT P6SM SKC=

USA.gov is the U.S. government's official web portal to all federal, state and local government web resources and services.